FW2775 Weather Reports


Display with metric or nautical units.
time (UTC)temp
F
wind
direction
speed
MPH
gust
MPH
rain 1hr
in
rain 24hr
in
rain mn
in
humidity
%
barometer
mb
20210619052716 74 150 3.0 7.0 0.00 0.00 0.00 67 1018.2
20210619051717 74 148 3.0 7.0 0.00 0.00 0.00 66 1018.2
20210619050716 74 175 1.0 3.0 0.00 0.00 0.00 65 1018.0
20210619045717 75 180 1.0 4.0 0.00 0.00 0.00 65 1017.9
20210619044716 75 167 2.0 6.0 0.00 0.00 0.00 64 1018.0
20210619043716 75 200 1.0 3.0 0.00 0.00 0.00 63 1018.3
20210619042716 75 180 1.0 3.0 0.00 0.00 0.00 63 1018.2
20210619041716 75 159 2.0 5.0 0.00 0.00 0.00 63 1018.1
20210619040716 76 190 1.0 4.0 0.00 0.00 0.00 62 1018.0
20210619035717 76 166 3.0 4.0 0.00 0.00 0.00 61 1017.9
20210619034717 76 165 1.0 8.0 0.00 0.00 0.00 61 1017.8
20210619033717 76 165 1.0 6.0 0.00 0.00 0.00 61 1017.9
20210619032721 77 172 2.0 7.0 0.00 0.00 0.00 60 1017.9
20210619031718 77 159 3.0 7.0 0.00 0.00 0.00 60 1018.0
20210619030717 77 160 4.0 8.0 0.00 0.00 0.00 60 1018.0
20210619025722 78 158 3.0 12.0 0.00 0.00 0.00 60 1018.1
20210619024716 78 164 2.0 8.0 0.00 0.00 0.00 59 1018.1
20210619023717 78 177 1.0 3.0 0.00 0.00 0.00 59 1018.3
20210619022718 78 170 3.0 8.0 0.00 0.00 0.00 59 1018.1
20210619021718 79 161 4.0 10.0 0.00 0.00 0.00 59 1017.8
20210619020717 79 157 3.0 8.0 0.00 0.00 0.00 58 1017.9
20210619015717 79 181 2.0 6.0 0.00 0.00 0.00 58 1018.1
20210619014717 79 165 1.0 6.0 0.00 0.00 0.00 57 1018.1
20210619013716 80 146 4.0 7.0 0.00 0.00 0.00 57 1018.1
20210619012718 80 155 2.0 4.0 0.00 0.00 0.00 56 1018.3
20210619011717 81 176 2.0 7.0 0.00 0.00 0.00 56 1018.2
20210619010717 81 158 3.0 6.0 0.00 0.00 0.00 55 1018.0
20210619005718 81 174 1.0 6.0 0.00 0.00 0.00 55 1018.0
20210619004717 82 158 4.0 8.0 0.00 0.00 0.00 54 1017.8
20210619003718 82 160 2.0 7.0 0.00 0.00 0.00 53 1017.7
20210619002718 82 184 1.0 3.0 0.00 0.00 0.00 53 1017.8
20210619001720 83 170 2.0 6.0 0.00 0.00 0.00 52 1017.6
20210619000716 83 181 2.0 4.0 0.00 0.00 0.00 51 1017.6
20210618235716 84 194 2.0 6.0 0.00 0.00 0.00 50 1017.3
20210618234719 84 185 3.0 7.0 0.00 0.00 0.00 46 1017.3
20210618233716 84 169 1.0 8.0 0.00 0.00 0.00 45 1017.1
20210618232717 85 161 4.0 9.0 0.00 0.00 0.00 44 1017.0
20210618231718 85 244 3.0 9.0 0.00 0.00 0.00 44 1017.1
20210618230716 85 197 4.0 11.0 0.00 0.00 0.00 44 1016.8
20210618225718 86 223 3.0 6.0 0.00 0.00 0.00 44 1017.0
20210618224716 86 185 0.0 4.0 0.00 0.00 0.00 43 1017.0
20210618223716 86 251 1.0 7.0 0.00 0.00 0.00 43 1017.1
20210618222716 86 216 1.0 2.0 0.00 0.00 0.00 44 1017.3
20210618221716 87 338 2.0 4.0 0.00 0.00 0.00 43 1017.4
20210618220716 86 235 1.0 3.0 0.00 0.00 0.00 42 1017.7
20210618215716 87 220 1.0 4.0 0.00 0.00 0.00 42 1017.8
20210618214717 87 198 0.0 2.0 0.00 0.00 0.00 42 1017.8
20210618213716 87 270 2.0 7.0 0.00 0.00 0.00 42 1017.8
20210618212717 87 245 3.0 5.0 0.00 0.00 0.00 42 1017.9
20210618211716 87 205 1.0 5.0 0.00 0.00 0.00 41 1017.9
20210618210716 88 234 1.0 4.0 0.00 0.00 0.00 39 1018.2
20210618205718 89 230 0.0 3.0 0.00 0.00 0.00 39 1018.3
20210618204716 88 277 2.0 6.0 0.00 0.00 0.00 38 1018.4
20210618203717 88 262 1.0 3.0 0.00 0.00 0.00 39 1018.6
20210618202716 88 277 0.0 2.0 0.00 0.00 0.00 39 1018.6
20210618201716 87 276 1.0 4.0 0.00 0.00 0.00 41 1018.9
20210618200716 86 221 2.0 9.0 0.00 0.00 0.00 40 1018.8
20210618195715 87 249 2.0 9.0 0.00 0.00 0.00 40 1019.0
20210618194717 87 256 1.0 4.0 0.00 0.00 0.00 39 1019.0
20210618193716 86 276 2.0 7.0 0.00 0.00 0.00 40 1019.1
20210618192716 85 180 1.0 4.0 0.00 0.00 0.00 41 1019.2
20210618191716 86 242 2.0 5.0 0.00 0.00 0.00 39 1019.3
20210618190717 86 20 0.0 4.0 0.00 0.00 0.00 40 1019.3
20210618185716 85 180 3.0 7.0 0.00 0.00 0.00 41 1019.3
20210618184716 86 193 4.0 10.0 0.00 0.00 0.00 41 1019.3
20210618183716 86 257 1.0 7.0 0.00 0.00 0.00 40 1019.4
20210618182716 85 216 1.0 3.0 0.00 0.00 0.00 39 1019.3
20210618181715 86 151 2.0 9.0 0.00 0.00 0.00 40 1019.7
20210618180715 85 251 3.0 6.0 0.00 0.00 0.00 40 1019.9
20210618175716 86 251 4.0 8.0 0.00 0.00 0.00 40 1020.0
20210618174717 85 244 1.0 4.0 0.00 0.00 0.00 39 1020.1
20210618173715 85 223 2.0 7.0 0.00 0.00 0.00 39 1020.3
20210618172717 84 142 5.0 9.0 0.00 0.00 0.00 41 1020.6
20210618171717 84 137 5.0 10.0 0.00 0.00 0.00 42 1020.5
20210618170715 83 149 1.0 8.0 0.00 0.00 0.00 42 1020.4
20210618165717 82 243 1.0 6.0 0.00 0.00 0.00 43 1020.4
20210618164715 81 161 1.0 8.0 0.00 0.00 0.00 43 1020.4
20210618163716 81 161 9.0 14.0 0.00 0.00 0.00 41 1020.3
20210618162716 81 203 2.0 8.0 0.00 0.00 0.00 44 1020.2
20210618161715 80 155 5.0 12.0 0.00 0.00 0.00 43 1020.3
20210618160715 80 186 2.0 6.0 0.00 0.00 0.00 44 1020.3
20210618155715 80 177 3.0 7.0 0.00 0.00 0.00 43 1020.5
20210618154717 79 149 5.0 10.0 0.00 0.00 0.00 44 1020.5
20210618153715 79 171 2.0 7.0 0.00 0.00 0.00 46 1020.6
20210618152715 78 154 7.0 12.0 0.00 0.00 0.00 45 1020.6
20210618151715 77 151 4.0 10.0 0.00 0.00 0.00 44 1020.6
20210618150716 77 180 4.0 7.0 0.00 0.00 0.00 44 1020.6
20210618145717 78 175 3.0 7.0 0.00 0.00 0.00 43 1020.7
20210618144716 77 150 3.0 8.0 0.00 0.00 0.00 44 1020.7
20210618143715 76 164 3.0 7.0 0.00 0.00 0.00 46 1020.8
20210618142715 77 181 2.0 5.0 0.00 0.00 0.00 46 1020.9
20210618141717 76 191 0.0 3.0 0.00 0.00 0.00 47 1020.8
20210618140717 76 152 1.0 4.0 0.00 0.00 0.00 45 1020.9
20210618135717 76 149 3.0 7.0 0.00 0.00 0.00 46 1020.9
20210618134716 76 153 1.0 4.0 0.00 0.00 0.00 46 1021.0
20210618133717 75 191 0.0 1.0 0.00 0.00 0.00 47 1021.0
20210618132719 74 114 3.0 5.0 0.00 0.00 0.00 47 1021.0
20210618131717 72 158 0.0 3.0 0.00 0.00 0.00 50 1021.0
20210618130717 72 164 0.0 1.0 0.00 0.00 0.00 52 1021.0
20210618125717 71 200 0.0 2.0 0.00 0.00 0.00 54 1020.9
20210618124718 70 174 0.0 2.0 0.00 0.00 0.00 54 1021.0
20210618123718 69 171 0.0 1.0 0.00 0.00 0.00 56 1021.0
20210618122716 69 167 0.0 2.0 0.00 0.00 0.00 59 1021.0
20210618121717 68 168 0.0 1.0 0.00 0.00 0.00 62 1021.0
20210618120717 67 172 0.0 4.0 0.00 0.00 0.00 59 1021.1
20210618115718 67 246 0.0 1.0 0.00 0.00 0.00 65 1020.9
20210618114717 66 247 0.0 1.0 0.00 0.00 0.00 66 1021.0
20210618113717 66 0.0 1.0 0.00 0.00 0.00 65 1021.0
20210618112717 65 0.0 0.0 0.00 0.00 0.00 67 1021.1
20210618111717 63 0.0 1.0 0.00 0.00 0.00 69 1021.0
20210618110717 62 0.0 1.0 0.00 0.00 0.00 70 1021.0
20210618105717 62 246 0.0 1.0 0.00 0.00 0.00 70 1021.0
20210618104718 61 265 0.0 2.0 0.00 0.00 0.00 73 1021.0
20210618103717 60 2 0.0 1.0 0.00 0.00 0.00 73 1020.8
20210618102716 60 50 0.0 2.0 0.00 0.00 0.00 76 1020.6
20210618101716 60 0.0 0.0 0.00 0.00 0.00 76 1020.3
20210618100718 60 51 0.0 1.0 0.00 0.00 0.00 75 1020.1
20210618095716 61 51 0.0 2.0 0.00 0.00 0.00 74 1020.0
20210618094716 61 0.0 0.0 0.00 0.00 0.00 72 1020.0
20210618093720 60 51 1.0 2.0 0.00 0.00 0.00 70 1019.8
20210618092716 60 51 0.0 2.0 0.00 0.00 0.00 72 1019.8
20210618091718 60 52 0.0 1.0 0.00 0.00 0.00 75 1019.7
20210618090716 60 52 0.0 1.0 0.00 0.00 0.00 73 1019.8
20210618085716 60 51 0.0 1.0 0.00 0.00 0.00 73 1019.9
20210618084716 60 51 0.0 1.0 0.00 0.00 0.00 75 1019.9
20210618083720 60 0.0 0.0 0.00 0.00 0.00 76 1019.9
20210618082717 60 0.0 0.0 0.00 0.00 0.00 75 1019.8
20210618081716 60 0.0 0.0 0.00 0.00 0.00 75 1019.7
20210618080716 60 0.0 0.0 0.00 0.00 0.00 74 1019.7
20210618075718 60 0.0 0.0 0.00 0.00 0.00 74 1019.6
20210618074716 61 0.0 0.0 0.00 0.00 0.00 73 1019.6
20210618073716 61 0.0 0.0 0.00 0.00 0.00 74 1019.6
20210618072721 61 0.0 0.0 0.00 0.00 0.00 72 1019.7
20210618071716 61 0.0 0.0 0.00 0.00 0.00 72 1019.8
20210618070719 62 0.0 0.0 0.00 0.00 0.00 72 1019.8
20210618065716 62 0.0 0.0 0.00 0.00 0.00 70 1019.9
20210618064716 62 0.0 0.0 0.00 0.00 0.00 70 1020.0
20210618063718 62 51 0.0 1.0 0.00 0.00 0.00 69 1020.1
20210618062716 63 0.0 1.0 0.00 0.00 0.00 70 1020.2
20210618061716 63 0.0 0.0 0.00 0.00 0.00 69 1020.3
20210618060716 63 0.0 1.0 0.00 0.00 0.00 65 1020.3
20210618055716 63 51 0.0 1.0 0.00 0.00 0.00 67 1020.2
20210618054716 63 51 0.0 1.0 0.00 0.00 0.00 67 1020.3
20210618053716 63 51 0.0 2.0 0.00 0.00 0.00 64 1020.1